createdAt,value
2022-12-11T00:02:29.568Z,2.06
2022-12-11T00:04:56.856Z,1.86
2022-12-11T00:07:23.885Z,1.86
2022-12-11T00:09:52.819Z,1.72
2022-12-11T00:12:19.788Z,1.65
2022-12-11T00:14:47.447Z,1.67
2022-12-11T00:17:14.179Z,1.72
2022-12-11T00:19:41.393Z,1.70
2022-12-11T00:22:08.151Z,1.52
2022-12-11T00:24:35.283Z,1.52
2022-12-11T00:27:02.422Z,1.53
2022-12-11T00:29:30.545Z,1.46
2022-12-11T00:31:57.610Z,1.41
2022-12-11T00:34:24.532Z,1.63
2022-12-11T00:36:59.321Z,1.65
2022-12-11T00:39:26.118Z,1.43
2022-12-11T00:41:52.806Z,1.40
2022-12-11T00:44:19.648Z,1.29
2022-12-11T00:46:46.739Z,1.40
2022-12-11T00:49:14.047Z,1.26
2022-12-11T00:51:44.918Z,1.54
2022-12-11T00:54:12.045Z,1.67
2022-12-11T00:56:39.981Z,1.66
2022-12-11T00:59:07.078Z,1.35
2022-12-11T01:01:34.193Z,1.36
2022-12-11T01:04:01.363Z,1.41
2022-12-11T01:06:28.967Z,1.48
2022-12-11T01:09:16.520Z,1.59
2022-12-11T01:11:43.876Z,1.68
2022-12-11T01:14:11.913Z,1.60
2022-12-11T01:16:39.045Z,1.35
2022-12-11T01:19:06.279Z,1.50
2022-12-11T01:21:33.513Z,1.35
2022-12-11T01:24:00.885Z,1.29
2022-12-11T01:26:27.932Z,1.33
2022-12-11T01:28:54.814Z,1.46
2022-12-11T01:31:22.403Z,1.52
2022-12-11T01:33:49.728Z,1.48
2022-12-11T01:36:22.291Z,1.53
2022-12-11T01:38:50.137Z,1.58
2022-12-11T01:41:18.625Z,1.63
2022-12-11T01:43:59.276Z,1.54
2022-12-11T01:46:27.054Z,1.68
2022-12-11T01:48:55.390Z,1.63
2022-12-11T01:51:23.397Z,1.50
2022-12-11T01:53:55.180Z,1.66
2022-12-11T01:56:22.282Z,1.42
2022-12-11T01:58:57.357Z,1.72
2022-12-11T02:01:57.413Z,1.75
2022-12-11T02:04:24.882Z,1.72
2022-12-11T02:06:53.033Z,1.79
2022-12-11T02:09:26.545Z,1.74
2022-12-11T02:12:00.605Z,1.79
2022-12-11T02:14:47.592Z,1.98
2022-12-11T02:17:25.375Z,1.91
2022-12-11T02:20:01.476Z,1.98
2022-12-11T02:22:47.838Z,2.01
2022-12-11T02:25:14.564Z,2.11
2022-12-11T02:27:41.379Z,1.70
2022-12-11T02:30:10.948Z,1.80
2022-12-11T02:32:54.001Z,1.86
2022-12-11T02:35:32.974Z,2.04
2022-12-11T02:38:04.004Z,1.94
2022-12-11T02:40:33.160Z,2.08
2022-12-11T02:43:03.722Z,2.04
2022-12-11T02:45:31.514Z,2.06
2022-12-11T02:48:01.506Z,2.02
2022-12-11T02:50:29.463Z,2.00
2022-12-11T02:52:57.091Z,2.34
2022-12-11T02:55:26.416Z,2.29
2022-12-11T02:58:08.908Z,2.35
2022-12-11T03:00:36.379Z,2.19
2022-12-11T03:03:03.473Z,2.29
2022-12-11T03:05:30.906Z,2.08
2022-12-11T03:08:00.496Z,2.13
2022-12-11T03:10:30.011Z,2.27
2022-12-11T03:12:58.402Z,2.31
2022-12-11T03:15:40.248Z,2.16
2022-12-11T03:18:21.351Z,2.24
2022-12-11T03:20:57.800Z,2.09
2022-12-11T03:23:47.759Z,2.09
2022-12-11T03:26:15.866Z,2.11
2022-12-11T03:28:55.548Z,2.14
2022-12-11T03:31:43.399Z,2.25
2022-12-11T03:34:16.993Z,1.96
2022-12-11T03:36:44.068Z,1.93
2022-12-11T03:39:18.878Z,1.86
2022-12-11T03:41:46.710Z,2.03
2022-12-11T03:44:14.125Z,2.06
2022-12-11T03:46:41.289Z,2.14
2022-12-11T03:49:21.276Z,2.03
2022-12-11T03:51:50.574Z,2.04
2022-12-11T03:54:18.051Z,2.03
2022-12-11T03:56:46.019Z,2.09
2022-12-11T03:59:12.853Z,2.20
2022-12-11T04:01:39.625Z,2.22
2022-12-11T04:04:06.265Z,2.16
2022-12-11T04:06:33.048Z,2.14
2022-12-11T04:08:59.626Z,2.19
2022-12-11T04:11:35.295Z,2.13
2022-12-11T04:14:32.202Z,2.23
2022-12-11T04:17:00.310Z,2.20
2022-12-11T04:19:46.006Z,2.15
2022-12-11T04:22:32.925Z,2.21
2022-12-11T04:25:00.801Z,2.15
2022-12-11T04:27:45.920Z,2.01
2022-12-11T04:30:22.032Z,2.18
2022-12-11T04:32:49.236Z,2.27
2022-12-11T04:35:16.443Z,2.17
2022-12-11T04:37:43.413Z,2.09
2022-12-11T04:40:13.009Z,2.03
2022-12-11T04:42:39.646Z,2.14
2022-12-11T04:45:08.455Z,2.11
2022-12-11T04:47:36.509Z,2.10
2022-12-11T04:50:05.484Z,2.17
2022-12-11T04:52:32.456Z,2.17
2022-12-11T04:54:59.185Z,2.14
2022-12-11T04:57:25.898Z,2.29
2022-12-11T04:59:52.630Z,2.23
2022-12-11T05:02:19.297Z,2.20
2022-12-11T05:04:45.980Z,2.18
2022-12-11T05:07:12.683Z,2.21
2022-12-11T05:09:39.456Z,2.29
2022-12-11T05:12:06.144Z,2.32
2022-12-11T05:14:32.929Z,2.36
2022-12-11T05:16:59.796Z,2.36
2022-12-11T05:19:27.506Z,2.44
2022-12-11T05:21:54.461Z,2.39
2022-12-11T05:24:21.633Z,2.43
2022-12-11T05:26:48.315Z,2.44
2022-12-11T05:29:14.899Z,2.48
2022-12-11T05:31:41.652Z,2.44
2022-12-11T05:34:08.400Z,2.33
2022-12-11T05:36:35.101Z,2.31
2022-12-11T05:39:02.215Z,2.32
2022-12-11T05:41:30.615Z,2.27
2022-12-11T05:43:57.396Z,2.35
2022-12-11T05:46:26.594Z,2.38
2022-12-11T05:48:59.287Z,2.40
2022-12-11T05:51:26.074Z,2.34
2022-12-11T05:53:53.266Z,2.32
2022-12-11T05:56:23.444Z,2.21
2022-12-11T05:58:50.951Z,2.01
2022-12-11T06:01:20.040Z,1.96
2022-12-11T06:03:46.957Z,2.13
2022-12-11T06:06:13.642Z,2.11
2022-12-11T06:08:43.623Z,2.09
2022-12-11T06:11:17.324Z,2.25
2022-12-11T06:13:47.939Z,2.12
2022-12-11T06:16:16.660Z,2.02
2022-12-11T06:18:45.056Z,2.13
2022-12-11T06:21:14.822Z,2.16
2022-12-11T06:23:42.043Z,2.31
2022-12-11T06:26:09.603Z,2.26
2022-12-11T06:28:37.010Z,2.14
2022-12-11T06:31:04.052Z,2.07
2022-12-11T06:33:30.868Z,2.24
2022-12-11T06:36:05.043Z,2.22
2022-12-11T06:38:32.150Z,2.13
2022-12-11T06:41:02.657Z,2.14
2022-12-11T06:43:29.452Z,2.10
2022-12-11T06:46:02.114Z,2.18
2022-12-11T06:48:31.736Z,2.00
2022-12-11T06:50:58.564Z,2.04
2022-12-11T06:53:25.594Z,2.15
2022-12-11T06:55:52.455Z,2.17
2022-12-11T06:58:19.179Z,2.24
2022-12-11T07:00:46.118Z,2.26
2022-12-11T07:03:13.775Z,2.26
2022-12-11T07:05:40.635Z,2.36
2022-12-11T07:08:08.016Z,2.49
2022-12-11T07:10:35.241Z,2.29
2022-12-11T07:13:02.293Z,2.37
2022-12-11T07:15:29.185Z,2.28
2022-12-11T07:17:55.989Z,2.30
2022-12-11T07:20:22.995Z,2.29
2022-12-11T07:22:50.660Z,2.23
2022-12-11T07:25:17.657Z,2.30
2022-12-11T07:27:44.419Z,2.15
2022-12-11T07:30:11.979Z,2.09
2022-12-11T07:32:38.900Z,2.11
2022-12-11T07:35:06.934Z,2.14
2022-12-11T07:37:40.530Z,2.17
2022-12-11T07:40:08.161Z,2.16
2022-12-11T07:42:35.165Z,2.23
2022-12-11T07:45:01.956Z,2.32
2022-12-11T07:47:28.639Z,2.11
2022-12-11T07:49:55.305Z,2.29
2022-12-11T07:52:22.038Z,2.32
2022-12-11T07:54:48.816Z,2.21
2022-12-11T07:57:15.522Z,2.18
2022-12-11T07:59:42.223Z,2.18
2022-12-11T08:02:12.184Z,2.26
2022-12-11T08:04:39.290Z,2.21
2022-12-11T08:07:06.080Z,2.21
2022-12-11T08:09:32.759Z,2.16
2022-12-11T08:11:59.539Z,2.18
2022-12-11T08:14:26.180Z,2.26
2022-12-11T08:16:52.999Z,2.26
2022-12-11T08:19:19.801Z,2.34
2022-12-11T08:21:48.832Z,2.39
2022-12-11T08:24:20.373Z,2.40
2022-12-11T08:26:48.305Z,2.37
2022-12-11T08:29:15.342Z,2.39
2022-12-11T08:31:42.451Z,2.32
2022-12-11T08:34:09.226Z,2.26
2022-12-11T08:36:35.945Z,2.29
2022-12-11T08:39:02.603Z,2.23
2022-12-11T08:41:30.272Z,2.28
2022-12-11T08:43:58.638Z,2.36
2022-12-11T08:46:28.896Z,2.41
2022-12-11T08:48:56.236Z,2.42
2022-12-11T08:51:25.133Z,2.34
2022-12-11T08:53:54.998Z,2.24
2022-12-11T08:56:23.667Z,2.28
2022-12-11T08:58:50.967Z,2.27
2022-12-11T09:01:23.361Z,2.35
2022-12-11T09:03:51.733Z,2.39
2022-12-11T09:06:23.435Z,2.29
2022-12-11T09:08:52.884Z,2.36
2022-12-11T09:11:23.502Z,2.19
2022-12-11T09:13:50.759Z,2.20
2022-12-11T09:16:23.154Z,2.36
2022-12-11T09:18:51.579Z,2.43
2022-12-11T09:21:21.345Z,2.40
2022-12-11T09:23:48.513Z,2.52
2022-12-11T09:26:18.045Z,2.51
2022-12-11T09:28:46.947Z,2.58
2022-12-11T09:31:23.625Z,2.52
2022-12-11T09:33:57.889Z,2.41
2022-12-11T09:36:27.199Z,2.53
2022-12-11T09:38:57.114Z,2.55
2022-12-11T09:41:36.637Z,2.53
2022-12-11T09:44:32.984Z,2.39
2022-12-11T09:47:00.260Z,2.36
2022-12-11T09:49:45.343Z,2.37
2022-12-11T09:52:53.409Z,2.48
2022-12-11T09:55:25.679Z,2.50
2022-12-11T09:58:20.626Z,2.58
2022-12-11T10:01:11.371Z,2.63
2022-12-11T10:03:53.255Z,2.58
2022-12-11T10:06:26.276Z,2.67
2022-12-11T10:09:26.142Z,2.76
2022-12-11T10:12:19.655Z,2.63
2022-12-11T10:19:31.616Z,2.67
2022-12-11T10:22:11.216Z,2.69
2022-12-11T10:31:12.451Z,2.71
2022-12-11T10:34:13.250Z,2.81
2022-12-11T10:36:43.071Z,2.71
2022-12-11T10:39:18.536Z,2.76
2022-12-11T10:41:53.782Z,2.69
2022-12-11T10:44:26.792Z,2.94
2022-12-11T10:47:02.885Z,2.97
2022-12-11T10:49:33.141Z,2.96
2022-12-11T10:52:07.065Z,2.60
2022-12-11T10:54:38.276Z,2.62
2022-12-11T10:57:07.972Z,2.88
2022-12-11T10:59:44.668Z,2.85
2022-12-11T11:02:38.144Z,2.69
2022-12-11T11:05:17.276Z,2.69
2022-12-11T11:07:44.160Z,2.75
2022-12-11T11:10:11.053Z,2.63
2022-12-11T11:12:48.109Z,2.55
2022-12-11T11:15:20.421Z,2.43
2022-12-11T11:17:54.954Z,2.49
2022-12-11T11:20:29.379Z,2.28
2022-12-11T11:22:58.164Z,2.40
2022-12-11T11:25:27.296Z,2.80
2022-12-11T11:28:08.458Z,2.89
2022-12-11T11:30:37.407Z,3.27
2022-12-11T11:33:24.608Z,3.33
2022-12-11T11:36:02.579Z,3.57
2022-12-11T11:38:53.973Z,3.41
2022-12-11T11:41:25.676Z,3.30
2022-12-11T11:43:55.783Z,3.31
2022-12-11T11:46:22.522Z,3.43
2022-12-11T11:49:04.554Z,3.41
2022-12-11T11:51:36.669Z,3.63
2022-12-11T11:54:32.350Z,3.12
2022-12-11T11:57:00.590Z,2.74
2022-12-11T11:59:35.053Z,2.76
2022-12-11T12:02:02.483Z,2.76
2022-12-11T12:04:37.626Z,2.60
2022-12-11T12:07:20.050Z,2.76
2022-12-11T12:10:08.276Z,2.86
2022-12-11T12:12:58.848Z,2.89
2022-12-11T12:15:34.193Z,2.91
2022-12-11T12:18:14.686Z,3.04
2022-12-11T12:21:09.339Z,2.90
2022-12-11T12:24:04.904Z,2.85
2022-12-11T12:26:35.204Z,2.96
2022-12-11T12:29:40.723Z,3.09
2022-12-11T12:32:37.921Z,3.15
2022-12-11T12:35:33.587Z,3.28
2022-12-11T12:38:18.731Z,3.41
2022-12-11T12:41:15.731Z,3.32
2022-12-11T12:44:12.979Z,3.27
2022-12-11T12:47:02.218Z,3.32
2022-12-11T12:49:50.217Z,3.19
2022-12-11T12:52:36.593Z,3.16
2022-12-11T12:55:26.638Z,3.24
2022-12-11T12:58:08.644Z,3.11
2022-12-11T13:00:41.279Z,3.40
2022-12-11T13:03:14.599Z,3.52
2022-12-11T13:05:44.352Z,3.35
2022-12-11T13:08:22.833Z,3.39
2022-12-11T13:11:10.654Z,3.41
2022-12-11T13:13:41.358Z,3.51
2022-12-11T13:16:17.543Z,3.76
2022-12-11T13:19:04.640Z,3.55
2022-12-11T13:21:38.338Z,3.37
2022-12-11T13:24:17.937Z,3.31
2022-12-11T13:26:45.189Z,3.38
2022-12-11T13:29:37.572Z,3.48
2022-12-11T13:32:10.521Z,3.35
2022-12-11T13:34:40.509Z,3.27
2022-12-11T13:37:31.912Z,3.31
2022-12-11T13:40:00.609Z,2.93
2022-12-11T13:42:38.626Z,2.89
2022-12-11T13:45:10.103Z,3.12
2022-12-11T13:47:38.230Z,3.21
2022-12-11T13:50:30.182Z,3.05
2022-12-11T13:53:02.227Z,2.94
2022-12-11T13:55:34.824Z,3.09
2022-12-11T13:58:02.299Z,3.30
2022-12-11T14:00:44.187Z,3.09
2022-12-11T14:03:22.216Z,3.25
2022-12-11T14:05:56.625Z,3.23
2022-12-11T14:08:38.699Z,3.33
2022-12-11T14:11:06.336Z,3.21
2022-12-11T14:13:39.629Z,3.21
2022-12-11T14:16:07.065Z,2.89
2022-12-11T14:18:36.022Z,3.05
2022-12-11T14:21:05.997Z,2.93
2022-12-11T14:23:35.444Z,3.10
2022-12-11T14:26:17.986Z,3.14
2022-12-11T14:29:26.679Z,3.12
2022-12-11T14:32:08.875Z,2.91
2022-12-11T14:34:44.800Z,3.09
2022-12-11T14:37:14.578Z,3.40
2022-12-11T14:39:48.722Z,3.24
2022-12-11T14:42:43.630Z,3.16
2022-12-11T14:45:29.848Z,3.32
2022-12-11T14:48:10.316Z,3.24
2022-12-11T14:50:48.745Z,3.05
2022-12-11T14:53:40.187Z,2.69
2022-12-11T14:56:09.285Z,3.05
2022-12-11T14:58:58.291Z,3.11
2022-12-11T15:01:29.079Z,3.06
2022-12-11T15:04:16.917Z,2.91
2022-12-11T15:06:48.825Z,2.79
2022-12-11T15:09:25.052Z,2.72
2022-12-11T15:11:52.570Z,2.71
2022-12-11T15:14:20.583Z,2.38
2022-12-11T15:16:48.385Z,2.41
2022-12-11T15:19:28.224Z,2.57
2022-12-11T15:22:01.976Z,2.47
2022-12-11T15:24:34.016Z,2.36
2022-12-11T15:27:01.291Z,2.28
2022-12-11T15:29:38.433Z,2.48
2022-12-11T15:32:08.413Z,2.30
2022-12-11T15:34:43.206Z,2.40
2022-12-11T15:37:32.664Z,2.36
2022-12-11T15:40:01.435Z,2.43
2022-12-11T15:42:36.072Z,2.48
2022-12-11T15:45:06.134Z,2.58
2022-12-11T15:47:33.629Z,2.55
2022-12-11T15:50:07.522Z,2.53
2022-12-11T15:52:34.683Z,2.63
2022-12-11T15:55:03.408Z,2.49
2022-12-11T15:57:33.704Z,2.60
2022-12-11T16:00:01.334Z,2.54
2022-12-11T16:02:36.333Z,2.56
2022-12-11T16:05:10.053Z,2.53
2022-12-11T16:07:38.690Z,2.34
2022-12-11T16:10:11.733Z,1.98
2022-12-11T16:12:42.312Z,1.97
2022-12-11T16:18:15.425Z,1.96
2022-12-11T16:20:51.310Z,1.98
2022-12-11T16:23:34.570Z,1.96
2022-12-11T16:26:18.201Z,2.13
2022-12-11T16:29:06.802Z,2.25
2022-12-11T16:31:38.291Z,2.02
2022-12-11T16:34:10.936Z,1.91
2022-12-11T16:36:38.672Z,2.18
2022-12-11T16:39:06.182Z,2.14
2022-12-11T16:41:42.392Z,2.04
2022-12-11T16:47:09.854Z,2.09
2022-12-11T16:49:40.709Z,1.75
2022-12-11T16:52:43.908Z,1.65
2022-12-11T16:55:14.276Z,1.82
2022-12-11T16:57:59.137Z,2.12
2022-12-11T17:00:29.356Z,2.18
2022-12-11T17:03:02.784Z,2.24
2022-12-11T17:06:06.815Z,2.12
2022-12-11T17:09:24.061Z,2.19
2022-12-11T17:11:53.622Z,2.21
2022-12-11T17:14:28.309Z,2.12
2022-12-11T17:17:02.293Z,2.13
2022-12-11T17:19:29.424Z,2.30
2022-12-11T17:21:57.010Z,2.23
2022-12-11T17:24:30.401Z,2.28
2022-12-11T17:27:02.687Z,2.39
2022-12-11T17:30:07.056Z,2.28
2022-12-11T17:33:12.402Z,2.03
2022-12-11T17:35:58.106Z,2.00
2022-12-11T17:41:35.731Z,2.11
2022-12-11T17:44:06.826Z,2.29
2022-12-11T17:46:46.087Z,2.12
2022-12-11T17:49:14.183Z,2.02
2022-12-11T17:51:41.066Z,1.90
2022-12-11T17:54:11.572Z,1.98
2022-12-11T17:56:38.895Z,2.11
2022-12-11T17:59:05.989Z,2.36
2022-12-11T18:01:33.353Z,2.32
2022-12-11T18:04:04.197Z,2.49
2022-12-11T18:06:34.554Z,2.62
2022-12-11T18:09:02.173Z,2.54
2022-12-11T18:11:29.115Z,2.32
2022-12-11T18:13:59.519Z,2.23
2022-12-11T18:16:34.319Z,2.17
2022-12-11T18:19:05.617Z,2.32
2022-12-11T18:21:40.595Z,2.50
2022-12-11T18:24:19.771Z,2.48
2022-12-11T18:26:48.835Z,2.30
2022-12-11T18:29:40.348Z,2.50
2022-12-11T18:32:23.122Z,2.44
2022-12-11T18:34:51.109Z,2.40
2022-12-11T18:37:21.127Z,2.47
2022-12-11T18:39:58.531Z,2.51
2022-12-11T18:42:34.688Z,2.48
2022-12-11T18:45:01.988Z,2.62
2022-12-11T18:47:32.237Z,2.57
2022-12-11T18:50:07.088Z,2.40
2022-12-11T18:52:57.206Z,2.54
2022-12-11T18:55:24.814Z,2.54
2022-12-11T18:57:53.772Z,2.56
2022-12-11T19:00:24.746Z,2.54
2022-12-11T19:02:54.159Z,2.61
2022-12-11T19:05:23.556Z,2.55
2022-12-11T19:07:50.575Z,2.42
2022-12-11T19:10:18.539Z,2.42
2022-12-11T19:12:47.886Z,2.57
2022-12-11T19:17:56.447Z,1.93
2022-12-11T19:20:48.437Z,2.37
2022-12-11T19:23:19.072Z,2.41
2022-12-11T19:25:54.593Z,2.55
2022-12-11T19:28:30.286Z,2.54
2022-12-11T19:31:01.375Z,2.48
2022-12-11T19:33:36.779Z,2.71
2022-12-11T19:36:23.240Z,2.97
2022-12-11T19:39:01.244Z,2.99
2022-12-11T19:44:39.889Z,3.02
2022-12-11T19:47:10.431Z,2.91
2022-12-11T19:49:40.528Z,2.81
2022-12-11T19:52:13.859Z,2.89
2022-12-11T19:54:43.667Z,2.76
2022-12-11T19:57:13.672Z,2.91
2022-12-11T19:59:43.613Z,2.81
2022-12-11T20:02:20.807Z,2.91
2022-12-11T20:04:48.389Z,2.83
2022-12-11T20:07:15.472Z,2.81
2022-12-11T20:09:43.686Z,2.73
2022-12-11T20:12:13.698Z,2.76
2022-12-11T20:14:41.091Z,2.99
2022-12-11T20:17:12.320Z,2.93
2022-12-11T20:19:40.187Z,2.73
2022-12-11T20:22:10.833Z,2.57
2022-12-11T20:24:38.167Z,2.55
2022-12-11T20:27:09.696Z,2.22
2022-12-11T20:29:37.992Z,2.37
2022-12-11T20:34:46.638Z,2.26
2022-12-11T20:37:14.143Z,2.24
2022-12-11T20:39:50.593Z,2.12
2022-12-11T20:42:21.292Z,2.09
2022-12-11T20:44:49.900Z,2.16
2022-12-11T20:47:21.529Z,2.38
2022-12-11T20:50:30.261Z,2.54
2022-12-11T20:57:16.420Z,2.32
2022-12-11T20:59:45.268Z,2.31
2022-12-11T21:02:13.413Z,2.21
2022-12-11T21:05:30.206Z,2.30
2022-12-11T21:07:57.559Z,2.01
2022-12-11T21:11:05.363Z,1.95
2022-12-11T21:13:37.671Z,1.99
2022-12-11T21:16:16.720Z,1.80
2022-12-11T21:18:44.396Z,2.02
2022-12-11T21:21:11.761Z,2.12
2022-12-11T21:23:39.173Z,2.10
2022-12-11T21:26:06.607Z,2.06
2022-12-11T21:28:37.650Z,1.97
2022-12-11T21:31:07.788Z,1.86
2022-12-11T21:33:35.379Z,1.91
2022-12-11T21:36:06.528Z,1.72
2022-12-11T21:38:33.908Z,2.00
2022-12-11T21:41:22.059Z,2.15
2022-12-11T21:44:56.530Z,2.20
2022-12-11T21:46:58.291Z,2.16
2022-12-11T21:53:41.632Z,2.46
2022-12-11T21:56:10.401Z,2.40
2022-12-11T21:58:39.508Z,2.20
2022-12-11T22:01:10.531Z,2.12
2022-12-11T22:03:40.944Z,2.09
2022-12-11T22:06:11.368Z,1.81
2022-12-11T22:08:43.340Z,2.09
2022-12-11T22:11:16.267Z,2.20
2022-12-11T22:13:45.116Z,2.09
2022-12-11T22:16:15.211Z,2.29
2022-12-11T22:18:42.712Z,2.04
2022-12-11T22:21:10.144Z,1.96
2022-12-11T22:23:46.808Z,1.97
2022-12-11T22:26:20.584Z,1.90
2022-12-11T22:28:47.941Z,1.87
2022-12-11T22:31:17.265Z,2.07
2022-12-11T22:33:44.291Z,2.22
2022-12-11T22:36:13.999Z,2.49
2022-12-11T22:38:41.284Z,2.52
2022-12-11T22:41:22.148Z,2.49
2022-12-11T22:43:55.655Z,2.27
2022-12-11T22:46:25.564Z,2.28
2022-12-11T22:48:52.716Z,2.10
2022-12-11T22:51:20.231Z,2.32
2022-12-11T22:53:51.405Z,2.09
2022-12-11T22:56:18.496Z,2.07
2022-12-11T22:58:46.071Z,2.03
2022-12-11T23:01:17.869Z,2.38
2022-12-11T23:03:46.205Z,2.54
2022-12-11T23:06:15.467Z,2.75
2022-12-11T23:08:43.399Z,2.73
2022-12-11T23:11:20.406Z,2.75
2022-12-11T23:14:09.737Z,2.86
2022-12-11T23:16:40.259Z,2.83
2022-12-11T23:19:10.714Z,2.90
2022-12-11T23:21:41.308Z,3.03
2022-12-11T23:24:11.528Z,3.07
2022-12-11T23:26:41.649Z,2.89
2022-12-11T23:29:08.892Z,3.22
2022-12-11T23:31:49.491Z,3.22
2022-12-11T23:34:21.654Z,3.15
2022-12-11T23:36:51.276Z,3.21
2022-12-11T23:39:18.810Z,3.04
2022-12-11T23:41:54.762Z,3.00
2022-12-11T23:44:21.700Z,2.98
2022-12-11T23:46:50.922Z,3.10
2022-12-11T23:49:19.078Z,3.09
2022-12-11T23:51:45.924Z,3.04
2022-12-11T23:54:12.836Z,3.06
2022-12-11T23:56:39.686Z,3.28
2022-12-11T23:59:09.449Z,3.33
